This is the latest recevied weather packets stored in our database for station/object KR8N. If no packets are shown the sender has not sent any weather packets the latest 1 day(s).
| Time | Temp. | Humidity | Pressure | Rain* | Wind** | Luminosity | Snow |
|---|---|---|---|---|---|---|---|
| 1778011783 | 22.78° C | 32% | 1014.9 hPa | 0 mm | 2.68 m/s, 323° | 460 W/m² | - |
| 1778011481 | 22.78° C | 32% | 1015 hPa | 0 mm | 2.68 m/s, 231° | 410 W/m² | - |
| 1778011176 | 22.78° C | 32% | 1014.9 hPa | 0 mm | 0.89 m/s, 122° | 320 W/m² | - |
| 1778010874 | 22.78° C | 35% | 1015.2 hPa | 0 mm | 1.34 m/s, 190° | 371 W/m² | - |
| 1778010571 | 23.33° C | 31% | 1014.9 hPa | 0 mm | 0.45 m/s, 89° | 361 W/m² | - |
| 1778010268 | 23.89° C | 32% | 1015 hPa | 0 mm | 0.45 m/s, 66° | 432 W/m² | - |
| 1778009968 | 23.89° C | 33% | 1015.1 hPa | 0 mm | 1.34 m/s, 279° | 560 W/m² | - |
| 1778009666 | 23.89° C | 34% | 1015.3 hPa | 0 mm | 1.34 m/s, 321° | 627 W/m² | - |
| 1778009364 | 23.33° C | 36% | 1015.2 hPa | 0 mm | 0.45 m/s, 119° | 623 W/m² | - |
| 1778009062 | 23.33° C | 36% | 1015.1 hPa | 0 mm | 0.89 m/s, 152° | 587 W/m² | - |
| 1778008759 | 23.89° C | 33% | 1015.2 hPa | 0 mm | 0.89 m/s, 314° | 400 W/m² | - |
| 1778008458 | 23.89° C | 35% | 1015.4 hPa | 0 mm | 1.79 m/s, 301° | 833 W/m² | - |
| 1778008154 | 23.33° C | 39% | 1015.3 hPa | 0 mm | 0.45 m/s, 135° | 753 W/m² | - |
| 1778007849 | 23.89° C | 37% | 1015.5 hPa | 0 mm | 0.89 m/s, 114° | 442 W/m² | - |
| 1778007545 | 23.33° C | 36% | 1015.7 hPa | 0 mm | 0.45 m/s, 136° | 650 W/m² | - |
| 1778007242 | 22.78° C | 36% | 1015.9 hPa | 0 mm | 0.89 m/s, 127° | 751 W/m² | - |
| 1778006938 | 22.78° C | 36% | 1015.7 hPa | 0 mm | 0.89 m/s, 146° | 672 W/m² | - |
| 1778006635 | 22.78° C | 36% | 1015.9 hPa | 0 mm | 0.89 m/s, 199° | 636 W/m² | - |
| 1778006332 | 23.33° C | 36% | 1015.9 hPa | 0 mm | 1.79 m/s, 179° | 730 W/m² | - |
| 1778006029 | 22.78° C | 36% | 1015.9 hPa | 0 mm | 0.89 m/s, 176° | 721 W/m² | - |
| 1778005720 | 22.22° C | 39% | 1016.1 hPa | 0 mm | 0.89 m/s, 49° | 751 W/m² | - |
| 1778005417 | 22.22° C | 38% | 1016.1 hPa | 0 mm | 1.79 m/s, 326° | 633 W/m² | - |
| 1778005114 | 22.22° C | 39% | 1016.1 hPa | 0 mm | 1.34 m/s, 263° | 624 W/m² | - |
| 1778004811 | 22.22° C | 37% | 1016.3 hPa | 0 mm | 1.34 m/s, 139° | 589 W/m² | - |
| 1778004508 | 21.67° C | 37% | 1016.2 hPa | 0 mm | 0.89 m/s, 329° | 554 W/m² | - |
* Rain latest hour (hover to see other rain measurements)
** Current wind speed in m/s (hover to see current wind gust speed)